Time;durP1;ratioP1;P1;durP2;ratioP2;P2;SDS_P1;SDS_P2;PMS_P1;PMS_P2;Temp;Humidity;BMP_temperature;BMP_pressure;BME280_temperature;BME280_humidity;BME280_pressure;Samples;Min_cycle;Max_cycle;Signal;HPM_P1;HPM_P2
2021/05/02 00:00:39;;;;;;;15.60;11.75;;;11.00;76.50;;;;;;3550136;40;20493;-65
2021/05/02 00:03:06;;;;;;;16.55;11.45;;;11.00;76.50;;;;;;3538856;40;20045;-65
2021/05/02 00:05:35;;;;;;;17.58;11.50;;;11.10;76.60;;;;;;3548363;40;20034;-65
2021/05/02 00:08:01;;;;;;;17.50;11.98;;;11.00;76.30;;;;;;3540403;40;20021;-65
2021/05/02 00:10:29;;;;;;;19.15;12.02;;;11.10;77.00;;;;;;3551260;40;20033;-64
2021/05/02 00:12:56;;;;;;;18.00;12.35;;;11.10;76.20;;;;;;3550356;40;20045;-65
2021/05/02 00:15:24;;;;;;;20.42;13.02;;;11.00;76.50;;;;;;3555226;40;20686;-65
2021/05/02 00:17:51;;;;;;;22.50;13.18;;;11.00;76.60;;;;;;3556711;40;20037;-65
2021/05/02 00:20:19;;;;;;;18.17;12.10;;;11.00;76.80;;;;;;3556345;40;20649;-64
2021/05/02 00:22:48;;;;;;;17.27;12.55;;;11.00;77.10;;;;;;3554665;40;20033;-65
2021/05/02 00:25:17;;;;;;;20.83;13.27;;;10.90;77.30;;;;;;3552617;40;20013;-64
2021/05/02 00:27:43;;;;;;;20.00;12.43;;;10.90;77.60;;;;;;3555657;40;20143;-61
2021/05/02 00:30:12;;;;;;;21.23;12.95;;;10.90;77.70;;;;;;3557289;40;20049;-65
2021/05/02 00:32:39;;;;;;;19.48;12.93;;;10.80;78.10;;;;;;3558592;40;20077;-62
2021/05/02 00:35:05;;;;;;;20.38;13.70;;;10.70;78.30;;;;;;3557248;40;20026;-62
2021/05/02 00:37:31;;;;;;;18.83;13.15;;;10.70;78.70;;;;;;3555321;40;20100;-62
2021/05/02 00:39:57;;;;;;;19.58;13.00;;;10.60;78.60;;;;;;3552943;40;20041;-61
2021/05/02 00:42:29;;;;;;;20.98;13.77;;;10.60;79.20;;;;;;3551165;40;20281;-62
2021/05/02 00:45:05;;;;;;;19.67;12.82;;;10.70;79.40;;;;;;3555349;40;20036;-63
2021/05/02 00:47:38;;;;;;;;;;;10.70;79.30;;;;;;3558321;40;20076;-61
2021/05/02 00:50:07;;;;;;;18.60;11.75;;;10.70;79.30;;;;;;3554238;40;20046;-60
2021/05/02 00:53:02;;;;;;;20.25;12.85;;;10.70;79.40;;;;;;3552214;40;20409;-61
2021/05/02 00:55:34;;;;;;;21.73;13.85;;;10.70;79.20;;;;;;3549607;40;20051;-61
2021/05/02 00:58:10;;;;;;;19.48;12.88;;;10.70;79.10;;;;;;3551382;40;20080;-61
2021/05/02 01:00:39;;;;;;;;;;;10.70;79.20;;;;;;3548243;40;20037;-61
2021/05/02 01:03:07;;;;;;;23.55;14.20;;;10.70;79.20;;;;;;3549379;40;19932;-62
2021/05/02 01:05:34;;;;;;;21.13;14.30;;;10.60;79.50;;;;;;3541672;40;20126;-62
2021/05/02 01:08:02;;;;;;;25.10;15.38;;;10.50;80.20;;;;;;3553603;40;20065;-62
2021/05/02 01:10:29;;;;;;;21.75;14.40;;;10.50;79.60;;;;;;3555632;40;20046;-62
2021/05/02 01:12:57;;;;;;;24.90;14.30;;;10.50;79.90;;;;;;3558241;40;20499;-62
2021/05/02 01:15:31;;;;;;;22.30;14.93;;;10.50;79.80;;;;;;3557397;40;20041;-62
2021/05/02 01:18:05;;;;;;;22.75;15.70;;;10.50;79.90;;;;;;3552327;40;20045;-62
2021/05/02 01:20:34;;;;;;;24.45;15.52;;;10.40;79.70;;;;;;3544741;40;20460;-62
2021/05/02 01:23:07;;;;;;;24.40;16.25;;;10.40;79.90;;;;;;3551879;40;20072;-62
2021/05/02 01:25:33;;;;;;;23.67;15.52;;;10.40;80.20;;;;;;3550344;40;20030;-61
2021/05/02 01:27:59;;;;;;;22.25;14.98;;;10.40;80.20;;;;;;3540557;40;20339;-65
2021/05/02 01:30:26;;;;;;;23.90;15.43;;;10.40;80.80;;;;;;3550400;40;20057;-65
2021/05/02 01:32:52;;;;;;;21.90;14.70;;;10.40;80.30;;;;;;3554521;40;20401;-64
2021/05/02 01:35:18;;;;;;;22.45;15.57;;;10.50;80.30;;;;;;3553056;40;20032;-65
2021/05/02 01:37:46;;;;;;;24.00;15.82;;;10.50;79.90;;;;;;3551348;40;20049;-65
2021/05/02 01:40:12;;;;;;;24.90;16.45;;;10.50;79.80;;;;;;3549328;40;20037;-65
2021/05/02 01:42:38;;;;;;;26.20;17.30;;;10.50;79.70;;;;;;3550723;40;20412;-64
2021/05/02 01:45:06;;;;;;;22.58;14.70;;;10.50;79.40;;;;;;3552093;40;20090;-65
2021/05/02 01:47:34;;;;;;;21.33;14.15;;;10.50;79.50;;;;;;3554265;40;20030;-65
2021/05/02 01:50:03;;;;;;;22.85;15.07;;;10.50;79.50;;;;;;3555374;40;20520;-65
2021/05/02 01:52:32;;;;;;;23.90;15.70;;;10.50;80.50;;;;;;3557217;40;20632;-65
2021/05/02 01:55:00;;;;;;;23.90;15.55;;;10.50;79.70;;;;;;3558784;40;20029;-65
2021/05/02 01:57:30;;;;;;;25.50;14.95;;;10.50;80.40;;;;;;3556708;40;20053;-65
2021/05/02 02:00:00;;;;;;;22.80;14.45;;;10.50;79.80;;;;;;3555089;40;20026;-65
2021/05/02 02:02:27;;;;;;;23.10;15.05;;;10.40;79.80;;;;;;3553405;40;20046;-65
2021/05/02 02:04:56;;;;;;;26.90;17.00;;;10.40;80.00;;;;;;3551787;40;20120;-65
2021/05/02 02:07:23;;;;;;;23.45;15.75;;;10.50;80.10;;;;;;3549664;40;20049;-64
2021/05/02 02:09:50;;;;;;;27.33;17.13;;;10.40;79.80;;;;;;3549616;40;20396;-65
2021/05/02 02:12:16;;;;;;;24.80;16.80;;;10.40;79.90;;;;;;3550913;40;20039;-65
2021/05/02 02:14:43;;;;;;;27.20;17.23;;;10.40;80.00;;;;;;3552449;40;20041;-65
2021/05/02 02:17:09;;;;;;;26.38;16.25;;;10.30;80.20;;;;;;3554991;40;20083;-65
2021/05/02 02:19:36;;;;;;;27.05;17.20;;;10.30;80.70;;;;;;3553216;40;20038;-67
2021/05/02 02:22:02;;;;;;;28.45;17.00;;;10.30;80.60;;;;;;3558010;40;20057;-65
2021/05/02 02:24:56;;;;;;;24.33;15.40;;;10.30;80.70;;;;;;3547281;40;20066;-63
2021/05/02 02:27:26;;;;;;;25.75;16.40;;;10.30;80.60;;;;;;3555127;40;20034;-66
2021/05/02 02:29:52;;;;;;;24.38;16.02;;;10.30;80.60;;;;;;3552263;40;20079;-64
2021/05/02 02:32:18;;;;;;;24.55;15.90;;;10.30;80.30;;;;;;3551746;40;20042;-65
2021/05/02 02:34:47;;;;;;;23.83;15.30;;;10.40;79.90;;;;;;3540457;40;20061;-65
2021/05/02 02:37:18;;;;;;;25.63;16.58;;;10.30;80.10;;;;;;3539654;40;20623;-67
2021/05/02 02:40:03;;;;;;;25.35;15.95;;;10.30;79.90;;;;;;3553572;40;20058;-67
2021/05/02 02:42:29;;;;;;;24.90;15.70;;;10.30;80.20;;;;;;3552678;40;20081;-65
2021/05/02 02:44:59;;;;;;;24.95;16.02;;;10.30;80.40;;;;;;3552860;40;20072;-64
2021/05/02 02:47:34;;;;;;;25.00;16.27;;;10.30;80.50;;;;;;3556925;40;20037;-67
2021/05/02 02:50:04;;;;;;;27.42;16.38;;;10.30;80.60;;;;;;3557850;40;20068;-64
2021/05/02 02:52:30;;;;;;;24.17;15.55;;;10.30;80.60;;;;;;3551711;40;20115;-64
2021/05/02 02:55:08;;;;;;;24.75;16.25;;;10.30;80.20;;;;;;3552856;40;20390;-61
2021/05/02 02:57:48;;;;;;;23.60;15.98;;;10.40;80.40;;;;;;3556788;40;20061;-62
2021/05/02 03:00:15;;;;;;;26.90;16.88;;;10.30;80.40;;;;;;3551277;40;20439;-62
2021/05/02 03:02:49;;;;;;;25.42;16.85;;;10.40;80.30;;;;;;3559203;40;20085;-64
2021/05/02 03:05:17;;;;;;;23.85;16.17;;;10.30;80.10;;;;;;3559025;40;20033;-64
2021/05/02 03:07:49;;;;;;;25.55;15.65;;;10.30;80.20;;;;;;3557509;40;20037;-64
2021/05/02 03:10:15;;;;;;;29.58;18.13;;;10.30;80.20;;;;;;3544916;40;20034;-62
2021/05/02 03:12:42;;;;;;;25.58;16.80;;;10.30;79.40;;;;;;3557162;40;20722;-62
2021/05/02 03:15:08;;;;;;;26.23;16.17;;;10.20;80.20;;;;;;3557676;40;20033;-61
2021/05/02 03:17:35;;;;;;;24.75;15.43;;;10.20;80.50;;;;;;3554857;40;20022;-62
2021/05/02 03:20:12;;;;;;;25.65;16.45;;;10.20;80.70;;;;;;3553471;40;20827;-62
2021/05/02 03:22:52;;;;;;;;;;;10.20;80.90;;;;;;3557186;40;20041;-64
2021/05/02 03:25:23;;;;;;;25.48;15.75;;;10.20;80.90;;;;;;3555398;40;20030;-62
2021/05/02 03:28:00;;;;;;;23.02;15.10;;;10.20;81.00;;;;;;3557911;40;20318;-62
2021/05/02 03:30:27;;;;;;;22.95;15.30;;;10.20;81.10;;;;;;3553703;40;20053;-61
2021/05/02 03:32:55;;;;;;;24.90;16.42;;;10.20;80.90;;;;;;3554130;40;20297;-61
2021/05/02 03:35:24;;;;;;;25.10;15.70;;;10.20;81.00;;;;;;3552706;40;20809;-62
2021/05/02 03:38:21;;;;;;;32.25;18.25;;;10.20;80.70;;;;;;3544653;40;20046;-62
2021/05/02 03:40:47;;;;;;;28.58;16.83;;;10.20;81.00;;;;;;3554612;40;20093;-63
2021/05/02 03:43:13;;;;;;;24.10;16.02;;;10.20;81.10;;;;;;3551992;40;20029;-64
2021/05/02 03:45:38;;;;;;;23.95;16.15;;;10.20;81.40;;;;;;3545932;40;20081;-61
2021/05/02 03:48:05;;;;;;;27.00;15.82;;;10.20;81.60;;;;;;3547477;40;20040;-62
2021/05/02 03:50:31;;;;;;;25.77;16.40;;;10.20;81.40;;;;;;3556035;40;20030;-62
2021/05/02 03:52:57;;;;;;;25.52;16.55;;;10.20;81.70;;;;;;3555198;40;20029;-61
2021/05/02 03:55:22;;;;;;;24.17;15.82;;;10.10;81.80;;;;;;3556742;40;20038;-62
2021/05/02 03:57:48;;;;;;;26.30;16.85;;;10.20;81.80;;;;;;3557140;40;20034;-62
2021/05/02 04:00:15;;;;;;;25.10;17.65;;;10.20;81.80;;;;;;3557829;40;20299;-62
2021/05/02 04:02:40;;;;;;;25.20;16.13;;;10.10;82.00;;;;;;3556641;40;20022;-61
2021/05/02 04:05:06;;;;;;;26.13;16.50;;;10.20;81.80;;;;;;3556563;40;20029;-62
2021/05/02 04:07:32;;;;;;;29.95;16.77;;;10.20;81.80;;;;;;3557735;40;20078;-61
2021/05/02 04:09:58;;;;;;;26.20;16.00;;;10.20;81.70;;;;;;3545107;40;20461;-62
2021/05/02 04:12:24;;;;;;;27.08;16.48;;;10.10;81.90;;;;;;3553526;40;20066;-61
2021/05/02 04:14:49;;;;;;;29.23;17.52;;;10.10;82.00;;;;;;3551794;40;20021;-62
2021/05/02 04:17:15;;;;;;;28.85;19.13;;;10.10;82.00;;;;;;3548862;40;20047;-62
2021/05/02 04:19:47;;;;;;;31.00;18.52;;;10.20;82.00;;;;;;3545827;40;20037;-62
2021/05/02 04:22:15;;;;;;;27.90;17.58;;;10.10;81.60;;;;;;3556217;40;20036;-62
2021/05/02 04:24:42;;;;;;;24.73;16.05;;;10.10;81.90;;;;;;3553975;40;20041;-62
2021/05/02 04:27:08;;;;;;;28.40;18.27;;;10.20;82.00;;;;;;3557005;40;20084;-61
2021/05/02 04:29:34;;;;;;;27.13;17.55;;;10.20;81.90;;;;;;3557461;40;20103;-61
2021/05/02 04:32:01;;;;;;;26.80;17.65;;;10.20;81.70;;;;;;3555386;40;20872;-62
2021/05/02 04:34:27;;;;;;;26.17;17.35;;;10.20;81.90;;;;;;3557252;40;20790;-62
2021/05/02 04:36:55;;;;;;;31.00;19.00;;;10.10;81.60;;;;;;3553714;40;20026;-62
2021/05/02 04:39:21;;;;;;;32.33;19.15;;;10.20;81.80;;;;;;3557002;40;20045;-60
2021/05/02 04:41:48;;;;;;;30.38;19.48;;;10.20;81.50;;;;;;3552656;40;20025;-64
2021/05/02 04:44:14;;;;;;;30.27;19.52;;;10.20;81.50;;;;;;3544328;40;20045;-62
2021/05/02 04:46:41;;;;;;;35.00;22.00;;;10.20;81.30;;;;;;3555968;40;20044;-58
2021/05/02 04:49:07;;;;;;;26.92;17.88;;;10.20;81.40;;;;;;3557012;40;20033;-60
2021/05/02 04:51:33;;;;;;;27.95;17.58;;;10.20;81.60;;;;;;3556130;40;20210;-60
2021/05/02 04:54:00;;;;;;;30.85;19.38;;;10.30;81.50;;;;;;3559269;40;20037;-60
2021/05/02 04:56:26;;;;;;;29.90;18.52;;;10.30;81.40;;;;;;3557373;40;20029;-59
2021/05/02 04:58:51;;;;;;;29.20;18.42;;;10.30;80.90;;;;;;3556086;40;20045;-60
2021/05/02 05:01:17;;;;;;;27.25;17.13;;;10.30;80.60;;;;;;3555050;40;20041;-60
2021/05/02 05:03:44;;;;;;;27.55;17.63;;;10.30;80.50;;;;;;3553065;40;20037;-60
2021/05/02 05:06:11;;;;;;;30.25;18.77;;;10.30;80.50;;;;;;3557589;40;20045;-60
2021/05/02 05:08:36;;;;;;;32.85;19.02;;;10.40;80.60;;;;;;3557445;40;20025;-60
2021/05/02 05:11:02;;;;;;;28.42;19.05;;;10.40;80.40;;;;;;3551268;40;20049;-59
2021/05/02 05:13:28;;;;;;;32.00;18.92;;;10.40;80.50;;;;;;3554553;40;20035;-59
2021/05/02 05:15:55;;;;;;;31.70;18.67;;;10.40;80.00;;;;;;3555960;40;20025;-59
2021/05/02 05:18:21;;;;;;;29.20;17.45;;;10.40;80.40;;;;;;3553646;40;20144;-59
2021/05/02 05:20:47;;;;;;;31.83;19.08;;;10.40;80.60;;;;;;3553230;40;20042;-59
2021/05/02 05:23:12;;;;;;;33.65;17.83;;;10.40;80.30;;;;;;3557350;40;20045;-60
2021/05/02 05:25:38;;;;;;;32.47;20.05;;;10.50;80.20;;;;;;3556157;40;20065;-60
2021/05/02 05:28:04;;;;;;;35.92;19.80;;;10.50;80.30;;;;;;3553625;40;20034;-60
2021/05/02 05:30:30;;;;;;;30.85;18.20;;;10.50;80.20;;;;;;3543848;40;20066;-60
2021/05/02 05:33:07;;;;;;;30.83;19.77;;;10.50;80.30;;;;;;3550758;40;20101;-59
2021/05/02 05:35:35;;;;;;;31.80;19.38;;;10.50;80.60;;;;;;3547453;40;20061;-61
2021/05/02 05:38:01;;;;;;;31.50;19.63;;;10.60;80.20;;;;;;3548781;40;20061;-59
2021/05/02 05:40:27;;;;;;;33.30;21.35;;;10.60;80.30;;;;;;3556539;40;20389;-60
2021/05/02 05:42:54;;;;;;;33.53;18.73;;;10.60;80.20;;;;;;3556826;40;20041;-61
2021/05/02 05:45:20;;;;;;;35.20;19.15;;;10.60;80.30;;;;;;3558151;40;20064;-60
2021/05/02 05:47:52;;;;;;;30.67;18.58;;;10.70;80.80;;;;;;3559014;40;20029;-61
2021/05/02 05:50:18;;;;;;;28.63;17.13;;;10.70;80.50;;;;;;3558586;40;20029;-60
2021/05/02 05:52:45;;;;;;;32.30;19.02;;;10.70;80.40;;;;;;3546128;40;20395;-60
2021/05/02 05:55:12;;;;;;;28.75;18.00;;;10.70;80.40;;;;;;3554042;40;20034;-61
2021/05/02 05:57:38;;;;;;;30.75;17.70;;;10.80;80.20;;;;;;3556508;40;20200;-61
2021/05/02 06:00:09;;;;;;;29.80;17.80;;;10.80;79.90;;;;;;3557638;40;20040;-61
2021/05/02 06:02:41;;;;;;;33.42;19.48;;;10.80;79.70;;;;;;3555006;40;20076;-61
2021/05/02 06:05:08;;;;;;;31.70;19.27;;;10.80;79.90;;;;;;3552898;40;20018;-60
2021/05/02 06:07:33;;;;;;;31.23;19.25;;;10.90;79.80;;;;;;3552917;40;20039;-59
2021/05/02 06:09:59;;;;;;;34.22;20.02;;;10.90;79.50;;;;;;3556583;40;20033;-59
2021/05/02 06:12:25;;;;;;;33.38;19.70;;;10.90;79.20;;;;;;3556974;40;20036;-61
2021/05/02 06:14:51;;;;;;;36.92;20.75;;;11.00;79.40;;;;;;3558964;40;20034;-59
2021/05/02 06:17:17;;;;;;;31.38;18.55;;;11.00;79.40;;;;;;3549512;40;20030;-63
2021/05/02 06:19:43;;;;;;;34.50;19.80;;;11.10;79.10;;;;;;3544208;40;20041;-64
2021/05/02 06:22:09;;;;;;;32.85;18.08;;;11.00;79.10;;;;;;3556123;40;20029;-63
2021/05/02 06:24:35;;;;;;;33.20;19.42;;;11.10;79.00;;;;;;3546032;40;20174;-63
2021/05/02 06:27:01;;;;;;;30.63;19.38;;;11.10;79.20;;;;;;3553258;40;20050;-63
2021/05/02 06:29:26;;;;;;;31.52;19.05;;;11.20;78.90;;;;;;3549261;40;20065;-65
2021/05/02 06:31:52;;;;;;;32.97;18.60;;;11.20;78.60;;;;;;3552062;40;20135;-63
2021/05/02 06:34:18;;;;;;;34.75;20.23;;;11.20;78.20;;;;;;3556774;40;20053;-64
2021/05/02 06:36:44;;;;;;;34.72;19.85;;;11.30;78.30;;;;;;3555942;40;20028;-63
2021/05/02 06:39:10;;;;;;;30.73;18.92;;;11.30;78.10;;;;;;3555476;40;20443;-64
2021/05/02 06:41:39;;;;;;;32.50;18.73;;;11.40;78.20;;;;;;3556676;40;20087;-64
2021/05/02 06:44:06;;;;;;;32.83;18.58;;;11.40;77.80;;;;;;3558157;40;20088;-63
2021/05/02 06:46:32;;;;;;;34.20;19.42;;;11.40;77.40;;;;;;3548890;40;20026;-64
2021/05/02 06:49:00;;;;;;;32.20;19.02;;;11.50;77.50;;;;;;3555674;40;20092;-64
2021/05/02 06:51:26;;;;;;;30.10;18.25;;;11.50;77.40;;;;;;3555896;40;20136;-64
2021/05/02 06:53:52;;;;;;;32.38;19.10;;;11.50;77.20;;;;;;3553600;40;20034;-63
2021/05/02 06:56:19;;;;;;;30.88;18.75;;;11.60;77.50;;;;;;3550494;40;20481;-63
2021/05/02 06:58:46;;;;;;;33.80;20.05;;;11.60;77.30;;;;;;3558196;40;20034;-63
2021/05/02 07:01:12;;;;;;;30.65;18.45;;;11.60;77.30;;;;;;3556844;40;20029;-64
2021/05/02 07:03:38;;;;;;;33.30;19.65;;;11.60;77.00;;;;;;3555207;40;20721;-63
2021/05/02 07:06:04;;;;;;;32.03;19.42;;;11.60;76.40;;;;;;3555857;40;20058;-62
2021/05/02 07:08:31;;;;;;;31.40;19.45;;;11.70;76.60;;;;;;3555399;40;20037;-63
2021/05/02 07:10:57;;;;;;;34.15;20.42;;;11.60;76.70;;;;;;3557829;40;20067;-65
2021/05/02 07:13:24;;;;;;;33.05;20.40;;;11.70;76.60;;;;;;3555622;40;20483;-63
2021/05/02 07:15:50;;;;;;;31.17;18.42;;;11.70;75.50;;;;;;3552870;40;20033;-63
2021/05/02 07:18:17;;;;;;;34.88;19.52;;;11.70;76.80;;;;;;3554974;40;20033;-68
2021/05/02 07:20:43;;;;;;;31.10;18.88;;;11.70;76.20;;;;;;3555882;40;20048;-68
2021/05/02 07:23:08;;;;;;;32.60;18.50;;;11.80;76.00;;;;;;3556239;40;20512;-63
2021/05/02 07:25:34;;;;;;;34.90;18.90;;;11.90;75.20;;;;;;3553314;40;20128;-64
2021/05/02 07:28:00;;;;;;;30.80;18.45;;;11.90;75.90;;;;;;3550940;40;20382;-64
2021/05/02 07:30:26;;;;;;;33.05;18.35;;;12.00;76.00;;;;;;3555269;40;20098;-62
2021/05/02 07:32:52;;;;;;;31.65;18.55;;;12.00;75.30;;;;;;3554980;40;20029;-65
2021/05/02 07:35:17;;;;;;;29.20;18.92;;;12.20;74.10;;;;;;3544252;40;20018;-62
2021/05/02 07:37:43;;;;;;;28.85;18.98;;;12.20;73.60;;;;;;3554771;40;20115;-63
2021/05/02 07:40:10;;;;;;;29.42;18.48;;;12.20;73.50;;;;;;3557666;40;20053;-63
2021/05/02 07:42:37;;;;;;;29.20;18.50;;;12.20;74.40;;;;;;3555816;40;20029;-63
2021/05/02 07:45:04;;;;;;;30.17;18.55;;;12.30;74.00;;;;;;3556901;40;20053;-64
2021/05/02 07:47:29;;;;;;;28.73;17.15;;;12.40;73.30;;;;;;3549390;40;20089;-63
2021/05/02 07:49:56;;;;;;;31.35;17.23;;;12.60;73.70;;;;;;3554506;40;20034;-63
2021/05/02 07:52:22;;;;;;;29.05;18.65;;;12.70;72.20;;;;;;3550758;40;20107;-63
2021/05/02 07:54:48;;;;;;;27.63;17.98;;;12.80;71.20;;;;;;3554684;40;20042;-63
2021/05/02 07:57:14;;;;;;;27.40;17.98;;;12.80;71.30;;;;;;3556704;40;20030;-63
2021/05/02 07:59:40;;;;;;;28.98;18.40;;;12.90;72.40;;;;;;3554161;40;20049;-63
2021/05/02 08:02:07;;;;;;;29.85;19.08;;;13.00;72.50;;;;;;3556615;40;20029;-64
2021/05/02 08:04:37;;;;;;;27.65;18.75;;;13.20;70.80;;;;;;3557495;40;20059;-63
2021/05/02 08:07:04;;;;;;;31.30;21.10;;;13.30;70.50;;;;;;3558487;40;20018;-65
2021/05/02 08:09:30;;;;;;;28.67;19.33;;;13.40;70.00;;;;;;3556787;40;20149;-63
2021/05/02 08:11:55;;;;;;;27.30;19.02;;;13.50;69.30;;;;;;3557180;40;20052;-64
2021/05/02 08:14:21;;;;;;;27.80;18.17;;;13.50;70.10;;;;;;3555343;40;20073;-64
2021/05/02 08:16:47;;;;;;;31.13;20.85;;;13.60;68.80;;;;;;3546791;40;20033;-63
2021/05/02 08:19:12;;;;;;;33.65;19.70;;;13.70;68.60;;;;;;3553358;40;20034;-63
2021/05/02 08:21:39;;;;;;;29.65;19.85;;;13.80;67.80;;;;;;3556685;40;20036;-64
2021/05/02 08:24:05;;;;;;;26.92;18.67;;;13.80;68.10;;;;;;3552275;40;20422;-63
2021/05/02 08:26:32;;;;;;;28.55;18.75;;;13.90;68.20;;;;;;3554583;40;20832;-63
2021/05/02 08:28:57;;;;;;;39.10;25.17;;;13.80;67.90;;;;;;3557410;40;20044;-66
2021/05/02 08:31:23;;;;;;;29.13;18.92;;;13.90;68.70;;;;;;3544951;40;20865;-63
2021/05/02 08:33:49;;;;;;;23.95;16.85;;;14.00;68.60;;;;;;3555472;40;20029;-63
2021/05/02 08:36:15;;;;;;;24.40;17.10;;;14.10;66.80;;;;;;3558948;40;20049;-63
2021/05/02 08:38:40;;;;;;;27.90;18.33;;;14.10;66.90;;;;;;3557543;40;20022;-63
2021/05/02 08:41:07;;;;;;;25.35;17.48;;;14.10;67.00;;;;;;3554294;40;20038;-63
2021/05/02 08:43:34;;;;;;;26.17;17.33;;;14.10;66.30;;;;;;3555849;40;20354;-64
2021/05/02 08:46:00;;;;;;;25.40;17.05;;;14.10;67.40;;;;;;3556889;40;20081;-64
2021/05/02 08:48:26;;;;;;;24.65;16.45;;;14.20;66.80;;;;;;3558017;40;20037;-64
2021/05/02 08:50:57;;;;;;;26.60;17.63;;;14.10;66.40;;;;;;3556481;40;20121;-63
2021/05/02 08:53:24;;;;;;;26.83;17.27;;;14.10;67.70;;;;;;3553722;40;20056;-59
2021/05/02 08:55:54;;;;;;;22.98;15.73;;;14.20;67.80;;;;;;3545360;40;20045;-59
2021/05/02 08:58:21;;;;;;;27.38;17.05;;;14.30;67.70;;;;;;3556549;40;20808;-59
2021/05/02 09:00:47;;;;;;;26.77;18.35;;;14.50;66.70;;;;;;3553920;40;20167;-60
2021/05/02 09:03:13;;;;;;;29.23;19.48;;;14.60;65.30;;;;;;3556136;40;20041;-60
2021/05/02 09:05:49;;;;;;;33.38;21.55;;;14.60;65.50;;;;;;3556428;40;20042;-60
2021/05/02 09:08:33;;;;;;;29.00;17.98;;;14.50;65.10;;;;;;3553372;40;20056;-60
2021/05/02 09:11:02;;;;;;;23.17;17.08;;;14.60;65.00;;;;;;3556185;40;20176;-63
2021/05/02 09:13:29;;;;;;;32.10;21.55;;;14.70;64.50;;;;;;3556081;40;20426;-63
2021/05/02 09:16:08;;;;;;;26.77;18.55;;;14.80;64.90;;;;;;3546602;40;20038;-63
2021/05/02 09:18:43;;;;;;;25.85;16.88;;;15.00;63.90;;;;;;3556204;40;20042;-63
2021/05/02 09:21:30;;;;;;;24.10;15.68;;;15.10;63.40;;;;;;3554682;40;20033;-63
2021/05/02 09:23:58;;;;;;;26.70;16.50;;;15.20;63.40;;;;;;3554825;40;20033;-63
2021/05/02 09:26:32;;;;;;;24.08;16.70;;;15.20;62.30;;;;;;3551917;40;20042;-64
2021/05/02 09:29:02;;;;;;;24.50;16.50;;;15.30;62.80;;;;;;3548585;40;20030;-64
2021/05/02 09:31:33;;;;;;;23.60;16.17;;;15.30;61.80;;;;;;3550388;40;20025;-63
2021/05/02 09:34:17;;;;;;;23.63;16.88;;;15.40;62.40;;;;;;3552780;40;20040;-64
2021/05/02 09:37:04;;;;;;;25.25;17.52;;;15.40;62.60;;;;;;3553488;40;20037;-63
2021/05/02 09:39:40;;;;;;;22.35;14.55;;;15.40;59.60;;;;;;3554968;40;20026;-63
2021/05/02 09:42:13;;;;;;;23.75;14.32;;;15.20;61.10;;;;;;3555728;40;20695;-64
2021/05/02 09:44:58;;;;;;;22.35;15.75;;;15.30;60.90;;;;;;3550397;40;20786;-63
2021/05/02 09:47:34;;;;;;;24.17;16.08;;;15.30;61.30;;;;;;3551938;40;20778;-64
2021/05/02 09:50:22;;;;;;;26.83;16.65;;;15.40;61.60;;;;;;3554469;40;20126;-63
2021/05/02 09:53:06;;;;;;;24.60;16.35;;;15.50;60.60;;;;;;3547399;40;20045;-64
2021/05/02 09:55:33;;;;;;;23.98;15.18;;;15.70;60.80;;;;;;3557532;40;20048;-68
2021/05/02 09:58:04;;;;;;;24.30;16.38;;;15.80;59.80;;;;;;3555838;40;20112;-65
2021/05/02 10:00:38;;;;;;;19.48;14.77;;;15.80;60.70;;;;;;3552064;40;20147;-64
2021/05/02 10:03:09;;;;;;;19.67;13.10;;;15.80;59.40;;;;;;3557307;40;20037;-64
2021/05/02 10:05:36;;;;;;;22.70;14.98;;;15.80;58.60;;;;;;3557052;40;20045;-65
2021/05/02 10:08:03;;;;;;;21.90;15.32;;;15.70;59.90;;;;;;3556377;40;20040;-65
2021/05/02 10:10:29;;;;;;;22.73;14.75;;;15.70;59.40;;;;;;3558152;40;20826;-65
2021/05/02 10:12:56;;;;;;;21.38;15.05;;;15.60;60.00;;;;;;3553128;40;20048;-65
2021/05/02 10:15:24;;;;;;;21.90;13.90;;;15.60;60.00;;;;;;3547077;40;20599;-64
2021/05/02 10:17:51;;;;;;;24.95;17.00;;;15.60;60.10;;;;;;3554058;40;20033;-64
2021/05/02 10:20:20;;;;;;;22.52;14.45;;;15.60;60.20;;;;;;3555600;40;20856;-65
2021/05/02 10:22:48;;;;;;;22.25;15.23;;;15.60;60.80;;;;;;3554793;40;20130;-65
2021/05/02 10:25:14;;;;;;;26.05;15.73;;;15.50;60.40;;;;;;3550926;40;20100;-64
2021/05/02 10:27:48;;;;;;;21.55;14.18;;;15.50;61.00;;;;;;3551151;40;20030;-65
2021/05/02 10:30:31;;;;;;;27.45;16.10;;;15.40;60.60;;;;;;3552710;40;20053;-64
2021/05/02 10:33:41;;;;;;;21.88;13.68;;;15.30;60.40;;;;;;3551287;40;20322;-64
2021/05/02 10:36:08;;;;;;;18.65;12.63;;;15.20;62.10;;;;;;3552955;40;20033;-64
2021/05/02 10:38:54;;;;;;;21.00;13.82;;;15.10;61.00;;;;;;3548672;40;20482;-65
2021/05/02 10:41:21;;;;;;;20.42;13.75;;;15.10;60.20;;;;;;3556128;40;20084;-65
2021/05/02 10:43:46;;;;;;;19.80;12.65;;;15.10;59.50;;;;;;3555803;40;20030;-65
2021/05/02 10:46:41;;;;;;;19.95;13.60;;;15.10;60.70;;;;;;3554423;40;20076;-65
2021/05/02 10:49:11;;;;;;;19.40;13.02;;;15.10;59.30;;;;;;3554632;40;20045;-61
2021/05/02 10:51:37;;;;;;;16.75;11.50;;;14.90;60.70;;;;;;3550792;40;20038;-62
2021/05/02 10:54:07;;;;;;;17.83;12.85;;;14.80;61.70;;;;;;3556146;40;20091;-61
2021/05/02 10:56:58;;;;;;;15.13;11.68;;;14.80;61.50;;;;;;3556457;40;20125;-60
2021/05/02 10:59:27;;;;;;;15.27;11.20;;;14.70;60.60;;;;;;3554359;40;20038;-67
2021/05/02 11:01:53;;;;;;;19.02;12.73;;;14.60;61.50;;;;;;3556255;40;20046;-61
2021/05/02 11:04:19;;;;;;;16.27;11.68;;;14.60;61.00;;;;;;3551813;40;20037;-61
2021/05/02 11:06:45;;;;;;;17.17;12.13;;;14.50;61.10;;;;;;3552799;40;20402;-60
2021/05/02 11:09:12;;;;;;;19.38;12.23;;;14.60;61.80;;;;;;3551826;40;20048;-60
2021/05/02 11:11:41;;;;;;;15.98;11.57;;;14.60;61.70;;;;;;3554068;40;20070;-60
2021/05/02 11:14:14;;;;;;;16.13;11.75;;;14.60;59.60;;;;;;3553891;40;20041;-64
2021/05/02 11:16:49;;;;;;;17.25;12.05;;;14.60;60.60;;;;;;3557224;40;20018;-64
2021/05/02 11:19:24;;;;;;;17.23;12.15;;;14.60;60.10;;;;;;3556832;40;20970;-64
2021/05/02 11:21:53;;;;;;;17.60;11.80;;;14.50;61.10;;;;;;3556550;40;20383;-64
2021/05/02 11:24:24;;;;;;;15.70;11.38;;;14.50;61.80;;;;;;3555527;40;20041;-61
2021/05/02 11:29:35;;;;;;;16.35;11.85;;;14.40;60.40;;;;;;3555806;40;20073;-64
2021/05/02 11:32:04;;;;;;;12.63;10.15;;;14.40;62.00;;;;;;3558595;40;20131;-64
2021/05/02 11:34:50;;;;;;;13.85;10.77;;;14.30;62.30;;;;;;3559207;40;20036;-63
2021/05/02 11:37:42;;;;;;;15.32;10.32;;;14.30;63.00;;;;;;3556317;40;20123;-64
2021/05/02 11:40:32;;;;;;;17.85;11.77;;;14.30;63.00;;;;;;3554740;40;20790;-65
2021/05/02 11:43:11;;;;;;;15.48;10.73;;;14.20;62.90;;;;;;3547837;40;20543;-64
2021/05/02 11:45:59;;;;;;;13.00;10.57;;;14.20;62.90;;;;;;3557437;40;20088;-63
2021/05/02 11:48:30;;;;;;;12.77;10.60;;;14.20;63.80;;;;;;3558740;40;20618;-64
2021/05/02 11:51:05;;;;;;;12.85;10.80;;;14.10;65.20;;;;;;3554240;40;20730;-65
2021/05/02 11:53:46;;;;;;;15.13;10.98;;;14.00;64.80;;;;;;3552773;40;20118;-64
2021/05/02 11:56:17;;;;;;;13.02;10.45;;;13.90;64.90;;;;;;3553232;40;20045;-65
2021/05/02 11:58:43;;;;;;;14.85;11.18;;;13.80;65.40;;;;;;3544918;40;20124;-65
2021/05/02 12:01:16;;;;;;;12.95;9.88;;;13.70;65.60;;;;;;3541026;40;20501;-66
2021/05/02 12:03:45;;;;;;;14.77;11.30;;;13.60;66.40;;;;;;3546774;40;20323;-65
2021/05/02 12:06:20;;;;;;;16.55;10.95;;;13.70;66.60;;;;;;3551809;40;20096;-65
2021/05/02 12:08:46;;;;;;;17.30;11.57;;;13.60;66.50;;;;;;3553328;40;20688;-67
2021/05/02 12:11:13;;;;;;;14.95;10.77;;;13.40;67.00;;;;;;3555648;40;20343;-66
2021/05/02 12:13:40;;;;;;;14.07;10.15;;;13.40;67.70;;;;;;3557887;40;20026;-66
2021/05/02 12:16:05;;;;;;;14.00;10.65;;;13.40;67.30;;;;;;3556987;40;20026;-66
2021/05/02 12:18:50;;;;;;;14.35;10.40;;;13.40;66.90;;;;;;3554095;40;20022;-66
2021/05/02 12:21:22;;;;;;;11.20;9.18;;;13.50;65.20;;;;;;3543941;40;20042;-66
2021/05/02 12:23:49;;;;;;;12.38;7.80;;;13.50;65.80;;;;;;3544421;40;20085;-66
2021/05/02 12:26:16;;;;;;;9.43;7.00;;;13.60;63.70;;;;;;3555955;40;20072;-65
2021/05/02 12:28:43;;;;;;;9.32;6.82;;;13.70;64.00;;;;;;3557886;40;20025;-67
2021/05/02 12:31:12;;;;;;;9.70;7.20;;;13.80;63.20;;;;;;3557188;40;20061;-65
2021/05/02 12:33:39;;;;;;;8.95;7.50;;;14.00;61.40;;;;;;3552357;40;20033;-64
2021/05/02 12:36:07;;;;;;;11.23;8.75;;;14.10;61.00;;;;;;3555321;40;20070;-66
2021/05/02 12:38:33;;;;;;;11.40;8.68;;;14.20;59.10;;;;;;3545526;40;20131;-64
2021/05/02 12:41:00;;;;;;;12.10;9.48;;;14.30;57.40;;;;;;3551886;40;20048;-64